createdAt,value
2023-02-09T00:00:55.086Z,10.20
2023-02-09T00:03:21.656Z,10.20
2023-02-09T00:05:48.156Z,10.20
2023-02-09T00:08:14.651Z,10.20
2023-02-09T00:10:41.111Z,10.20
2023-02-09T00:13:07.593Z,10.00
2023-02-09T00:15:34.197Z,10.20
2023-02-09T00:18:00.689Z,10.20
2023-02-09T00:20:27.161Z,10.20
2023-02-09T00:22:53.632Z,10.20
2023-02-09T00:25:20.110Z,10.10
2023-02-09T00:27:46.615Z,10.20
2023-02-09T00:30:13.093Z,10.30
2023-02-09T00:32:39.587Z,10.30
2023-02-09T00:35:06.058Z,10.20
2023-02-09T00:37:32.562Z,10.10
2023-02-09T00:39:59.024Z,10.20
2023-02-09T00:42:25.504Z,10.20
2023-02-09T00:44:51.974Z,10.10
2023-02-09T00:47:18.479Z,10.10
2023-02-09T00:49:45.128Z,10.10
2023-02-09T00:52:11.617Z,10.20
2023-02-09T00:54:38.088Z,10.20
2023-02-09T00:57:04.587Z,10.00
2023-02-09T00:59:31.065Z,10.10
2023-02-09T01:01:57.540Z,10.10
2023-02-09T01:04:24.056Z,10.10
2023-02-09T01:06:50.581Z,10.10
2023-02-09T01:09:17.056Z,10.20
2023-02-09T01:11:43.528Z,10.20
2023-02-09T01:14:09.989Z,10.20
2023-02-09T01:16:36.504Z,10.10
2023-02-09T01:19:03.047Z,10.10
2023-02-09T01:21:29.528Z,10.10
2023-02-09T01:23:56.003Z,10.10
2023-02-09T01:26:22.477Z,10.10
2023-02-09T01:28:48.950Z,10.00
2023-02-09T01:31:15.585Z,10.10
2023-02-09T01:33:42.105Z,10.00
2023-02-09T01:36:08.577Z,9.90
2023-02-09T01:38:35.043Z,10.10
2023-02-09T01:41:01.545Z,10.10
2023-02-09T01:43:27.998Z,10.10
2023-02-09T01:45:54.513Z,10.10
2023-02-09T01:48:21.021Z,10.10
2023-02-09T01:50:47.614Z,10.10
2023-02-09T01:53:14.159Z,10.00
2023-02-09T01:55:40.641Z,10.00
2023-02-09T01:58:07.149Z,10.00
2023-02-09T02:00:33.630Z,10.00
2023-02-09T02:03:00.111Z,10.00
2023-02-09T02:05:26.581Z,10.00
2023-02-09T02:07:53.080Z,10.00
2023-02-09T02:10:19.542Z,9.90
2023-02-09T02:12:46.019Z,10.00
2023-02-09T02:15:12.523Z,10.00
2023-02-09T02:17:39.007Z,10.00
2023-02-09T02:20:05.479Z,10.00
2023-02-09T02:22:31.939Z,9.90
2023-02-09T02:24:58.432Z,9.90
2023-02-09T02:27:24.917Z,9.80
2023-02-09T02:29:51.394Z,9.90
2023-02-09T02:32:17.890Z,10.00
2023-02-09T02:34:44.376Z,10.00
2023-02-09T02:37:10.849Z,9.90
2023-02-09T02:39:37.341Z,10.00
2023-02-09T02:42:03.842Z,9.90
2023-02-09T02:44:30.346Z,9.80
2023-02-09T02:47:05.060Z,9.80
2023-02-09T02:49:31.532Z,9.90
2023-02-09T02:51:58.011Z,9.80
2023-02-09T02:54:24.476Z,9.60
2023-02-09T02:56:50.934Z,9.70
2023-02-09T02:59:17.412Z,9.80
2023-02-09T03:01:43.962Z,9.80
2023-02-09T03:04:10.453Z,9.80
2023-02-09T03:06:36.935Z,9.90
2023-02-09T03:09:03.630Z,9.70
2023-02-09T03:11:30.134Z,9.60
2023-02-09T03:13:56.600Z,9.80
2023-02-09T03:16:23.199Z,9.80
2023-02-09T03:18:49.705Z,9.80
2023-02-09T03:21:16.174Z,10.00
2023-02-09T03:23:42.641Z,9.80
2023-02-09T03:26:09.112Z,9.80
2023-02-09T03:28:35.594Z,9.90
2023-02-09T03:31:02.223Z,9.80
2023-02-09T03:33:28.780Z,9.90
2023-02-09T03:35:55.245Z,10.10
2023-02-09T03:38:21.734Z,9.90
2023-02-09T03:40:48.243Z,9.80
2023-02-09T03:43:14.733Z,9.80
2023-02-09T03:45:41.229Z,9.80
2023-02-09T03:48:07.702Z,9.90
2023-02-09T03:50:34.155Z,10.00
2023-02-09T03:53:00.653Z,9.80
2023-02-09T03:55:27.124Z,9.80
2023-02-09T03:57:53.605Z,9.90
2023-02-09T04:00:20.102Z,9.90
2023-02-09T04:02:46.648Z,9.90
2023-02-09T04:05:13.168Z,9.90
2023-02-09T04:07:39.935Z,9.90
2023-02-09T04:10:06.399Z,9.90
2023-02-09T04:12:32.883Z,9.90
2023-02-09T04:14:59.352Z,9.80
2023-02-09T04:17:25.837Z,9.80
2023-02-09T04:19:52.327Z,9.80
2023-02-09T04:22:18.847Z,9.90
2023-02-09T04:24:45.338Z,9.90
2023-02-09T04:27:11.833Z,9.90
2023-02-09T04:29:38.316Z,9.90
2023-02-09T04:32:04.934Z,9.90
2023-02-09T04:34:31.444Z,9.90
2023-02-09T04:36:57.903Z,10.00
2023-02-09T04:39:24.382Z,10.00
2023-02-09T04:41:50.852Z,9.90
2023-02-09T04:44:17.325Z,9.90
2023-02-09T04:46:45.674Z,9.90
2023-02-09T04:49:12.290Z,10.00
2023-02-09T04:51:38.752Z,10.00
2023-02-09T04:54:05.232Z,10.00
2023-02-09T04:56:31.715Z,10.00
2023-02-09T04:59:00.440Z,10.00
2023-02-09T05:01:26.959Z,9.90
2023-02-09T05:03:53.583Z,9.90
2023-02-09T05:06:20.111Z,9.90
2023-02-09T05:08:46.585Z,10.00
2023-02-09T05:11:13.065Z,9.90
2023-02-09T05:13:39.589Z,9.90
2023-02-09T05:16:06.122Z,9.90
2023-02-09T05:18:32.629Z,9.80
2023-02-09T05:20:59.111Z,9.80
2023-02-09T05:23:25.593Z,9.70
2023-02-09T05:25:52.076Z,9.80
2023-02-09T05:28:18.626Z,9.90
2023-02-09T05:30:45.440Z,9.90
2023-02-09T05:33:12.132Z,9.90
2023-02-09T05:35:38.613Z,9.80
2023-02-09T05:38:05.064Z,9.80
2023-02-09T05:40:31.529Z,9.70
2023-02-09T05:43:00.429Z,9.70
2023-02-09T05:45:26.924Z,9.70
2023-02-09T05:47:53.416Z,9.70
2023-02-09T05:50:19.908Z,9.80
2023-02-09T05:52:46.395Z,9.80
2023-02-09T05:55:12.864Z,9.80
2023-02-09T05:57:39.324Z,9.80
2023-02-09T06:00:05.820Z,9.90
2023-02-09T06:02:32.407Z,9.90
2023-02-09T06:04:58.939Z,9.90
2023-02-09T06:07:25.413Z,9.90
2023-02-09T06:09:51.900Z,9.90
2023-02-09T06:12:18.393Z,9.80
2023-02-09T06:14:44.889Z,9.80
2023-02-09T06:17:11.346Z,9.90
2023-02-09T06:19:37.805Z,9.90
2023-02-09T06:22:04.276Z,9.90
2023-02-09T06:24:30.763Z,9.90
2023-02-09T06:26:57.258Z,9.90
2023-02-09T06:29:23.725Z,9.90
2023-02-09T06:31:50.331Z,9.90
2023-02-09T06:34:16.926Z,9.90
2023-02-09T06:36:43.406Z,9.80
2023-02-09T06:39:09.928Z,9.80
2023-02-09T06:41:36.420Z,9.80
2023-02-09T06:44:02.887Z,9.80
2023-02-09T06:46:29.455Z,9.90
2023-02-09T06:48:57.184Z,9.90
2023-02-09T06:51:24.600Z,9.90
2023-02-09T06:53:51.148Z,9.90
2023-02-09T06:56:18.514Z,9.90
2023-02-09T06:58:44.993Z,9.90
2023-02-09T07:01:11.505Z,9.80
2023-02-09T07:03:37.992Z,9.90
2023-02-09T07:06:04.477Z,9.80
2023-02-09T07:08:30.953Z,9.90
2023-02-09T07:10:57.424Z,9.90
2023-02-09T07:13:23.893Z,9.80
2023-02-09T07:15:50.403Z,9.80
2023-02-09T07:18:18.519Z,9.90
2023-02-09T07:20:45.269Z,9.90
2023-02-09T07:23:11.928Z,9.80
2023-02-09T07:25:38.401Z,9.80
2023-02-09T07:28:04.934Z,9.80
2023-02-09T07:30:31.499Z,9.80
2023-02-09T07:32:58.001Z,9.90
2023-02-09T07:35:24.502Z,9.80
2023-02-09T07:37:50.972Z,9.80
2023-02-09T07:40:17.539Z,9.80
2023-02-09T07:42:44.053Z,9.90
2023-02-09T07:45:10.538Z,9.90
2023-02-09T07:47:37.004Z,9.80
2023-02-09T07:50:03.472Z,9.80
2023-02-09T07:52:29.956Z,9.80
2023-02-09T07:54:56.421Z,9.80
2023-02-09T07:57:22.903Z,9.80
2023-02-09T07:59:49.382Z,9.80
2023-02-09T08:02:15.875Z,9.80
2023-02-09T08:04:42.371Z,9.90
2023-02-09T08:07:12.570Z,9.80
2023-02-09T08:09:40.426Z,9.80
2023-02-09T08:12:06.974Z,9.90
2023-02-09T08:14:33.466Z,9.80
2023-02-09T08:16:59.940Z,9.90
2023-02-09T08:19:26.382Z,9.90
2023-02-09T08:21:52.875Z,9.90
2023-02-09T08:24:19.331Z,9.90
2023-02-09T08:26:45.845Z,9.80
2023-02-09T08:29:12.329Z,9.80
2023-02-09T08:31:38.880Z,9.80
2023-02-09T08:34:05.825Z,9.80
2023-02-09T08:36:32.337Z,9.70
2023-02-09T08:38:58.823Z,9.70
2023-02-09T08:41:25.295Z,9.80
2023-02-09T08:43:51.792Z,9.80
2023-02-09T08:46:18.393Z,9.70
2023-02-09T08:48:45.000Z,9.60
2023-02-09T08:51:11.461Z,9.60
2023-02-09T08:53:42.646Z,9.50
2023-02-09T08:56:09.123Z,9.60
2023-02-09T08:58:35.551Z,9.50
2023-02-09T09:01:02.061Z,9.30
2023-02-09T09:03:28.611Z,9.40
2023-02-09T09:05:55.120Z,9.30
2023-02-09T09:08:21.601Z,9.50
2023-02-09T09:10:48.072Z,9.20
2023-02-09T09:13:14.574Z,9.00
2023-02-09T09:15:41.058Z,9.20
2023-02-09T09:18:07.523Z,9.20
2023-02-09T09:20:34.008Z,9.40
2023-02-09T09:23:00.483Z,9.40
2023-02-09T09:25:26.966Z,9.30
2023-02-09T09:27:53.438Z,9.20
2023-02-09T09:30:19.989Z,9.50
2023-02-09T09:32:46.526Z,9.50
2023-02-09T09:35:13.023Z,9.50
2023-02-09T09:37:39.554Z,9.60
2023-02-09T09:40:06.013Z,9.60
2023-02-09T09:42:32.486Z,9.60
2023-02-09T09:44:59.209Z,9.60
2023-02-09T09:47:25.779Z,9.50
2023-02-09T09:49:52.271Z,9.40
2023-02-09T09:52:18.773Z,9.40
2023-02-09T09:54:45.404Z,9.20
2023-02-09T09:57:11.898Z,9.10
2023-02-09T09:59:38.377Z,9.10
2023-02-09T10:02:04.886Z,9.10
2023-02-09T10:04:31.382Z,8.90
2023-02-09T10:06:57.925Z,9.00
2023-02-09T10:09:24.419Z,9.10
2023-02-09T10:11:50.913Z,9.20
2023-02-09T10:14:17.409Z,9.30
2023-02-09T10:16:43.919Z,9.10
2023-02-09T10:19:10.424Z,9.20
2023-02-09T10:21:36.890Z,9.50
2023-02-09T10:24:03.318Z,9.50
2023-02-09T10:26:29.813Z,9.50
2023-02-09T10:28:56.308Z,9.50
2023-02-09T10:31:24.776Z,9.50
2023-02-09T10:33:51.329Z,9.60
2023-02-09T10:36:18.717Z,9.30
2023-02-09T10:38:45.192Z,9.50
2023-02-09T10:41:11.694Z,9.20
2023-02-09T10:43:42.750Z,9.20
2023-02-09T10:46:09.296Z,9.20
2023-02-09T10:48:35.784Z,9.10
2023-02-09T10:51:02.241Z,9.00
2023-02-09T10:53:28.710Z,9.10
2023-02-09T10:55:55.210Z,9.50
2023-02-09T10:58:21.680Z,9.40
2023-02-09T11:00:48.192Z,9.60
2023-02-09T11:03:14.662Z,9.60
2023-02-09T11:05:41.169Z,9.40
2023-02-09T11:08:07.648Z,9.70
2023-02-09T11:10:34.153Z,9.40
2023-02-09T11:13:00.615Z,9.40
2023-02-09T11:15:27.089Z,9.60
2023-02-09T11:17:53.562Z,9.50
2023-02-09T11:20:24.847Z,9.20
2023-02-09T11:22:51.340Z,9.20
2023-02-09T11:25:17.826Z,9.20
2023-02-09T11:27:44.301Z,9.20
2023-02-09T11:30:10.776Z,9.00
2023-02-09T11:32:37.249Z,9.00
2023-02-09T11:35:03.734Z,9.30
2023-02-09T11:37:30.284Z,9.20
2023-02-09T11:40:00.843Z,9.40
2023-02-09T11:42:30.780Z,9.60
2023-02-09T11:44:57.249Z,9.60
2023-02-09T11:47:23.707Z,9.80
2023-02-09T11:49:54.753Z,9.90
2023-02-09T11:52:21.241Z,9.70
2023-02-09T11:54:47.745Z,9.50
2023-02-09T11:57:14.220Z,9.70
2023-02-09T11:59:40.688Z,9.70
2023-02-09T12:02:07.113Z,9.80
2023-02-09T12:04:33.581Z,9.80
2023-02-09T12:07:00.123Z,9.90
2023-02-09T12:09:26.610Z,9.90
2023-02-09T12:11:53.150Z,9.70
2023-02-09T12:14:19.627Z,9.60
2023-02-09T12:16:46.111Z,9.40
2023-02-09T12:19:12.581Z,9.50
2023-02-09T12:21:39.041Z,9.40
2023-02-09T12:24:05.529Z,9.20
2023-02-09T12:26:32.006Z,9.40
2023-02-09T12:28:58.481Z,9.60
2023-02-09T12:31:25.038Z,9.70
2023-02-09T12:33:51.600Z,9.80
2023-02-09T12:36:18.071Z,9.80
2023-02-09T12:38:49.316Z,9.70
2023-02-09T12:41:16.265Z,9.50
2023-02-09T12:43:42.812Z,9.60
2023-02-09T12:46:09.368Z,9.50
2023-02-09T12:48:35.869Z,9.50
2023-02-09T12:51:02.356Z,9.50
2023-02-09T12:53:28.840Z,9.50
2023-02-09T12:55:55.326Z,9.60
2023-02-09T12:58:21.821Z,9.30
2023-02-09T13:00:48.334Z,9.10
2023-02-09T13:03:14.838Z,9.50
2023-02-09T13:05:41.319Z,9.50
2023-02-09T13:08:07.834Z,9.20
2023-02-09T13:10:34.308Z,9.20
2023-02-09T13:13:00.777Z,9.50
2023-02-09T13:15:27.267Z,9.40
2023-02-09T13:17:53.744Z,9.30
2023-02-09T13:20:20.219Z,9.50
2023-02-09T13:22:48.858Z,9.70
2023-02-09T13:25:15.346Z,9.60
2023-02-09T13:27:41.812Z,9.70
2023-02-09T13:30:08.285Z,9.60
2023-02-09T13:32:34.755Z,9.70
2023-02-09T13:35:01.372Z,9.80
2023-02-09T13:37:27.881Z,9.70
2023-02-09T13:39:54.354Z,9.70
2023-02-09T13:42:20.849Z,9.70
2023-02-09T13:44:47.318Z,9.60
2023-02-09T13:47:13.787Z,9.70
2023-02-09T13:49:40.266Z,9.50
2023-02-09T13:52:06.909Z,9.70
2023-02-09T13:54:33.378Z,9.60
2023-02-09T13:57:00.075Z,9.70
2023-02-09T13:59:30.868Z,9.30
2023-02-09T14:01:57.354Z,9.40
2023-02-09T14:04:23.843Z,9.40
2023-02-09T14:06:50.327Z,9.30
2023-02-09T14:09:16.831Z,9.40
2023-02-09T14:11:43.397Z,9.50
2023-02-09T14:14:09.897Z,9.40
2023-02-09T14:16:44.757Z,9.30
2023-02-09T14:19:19.007Z,9.30
2023-02-09T14:21:45.489Z,9.40
2023-02-09T14:24:12.721Z,9.40
2023-02-09T14:26:39.267Z,9.40
2023-02-09T14:29:05.755Z,9.60
2023-02-09T14:31:32.232Z,9.20
2023-02-09T14:33:58.724Z,9.20
2023-02-09T14:36:25.209Z,9.40
2023-02-09T14:38:51.725Z,9.30
2023-02-09T14:41:18.198Z,9.60
2023-02-09T14:43:44.646Z,9.30
2023-02-09T14:46:12.933Z,9.40
2023-02-09T14:48:39.422Z,9.40
2023-02-09T14:51:05.923Z,9.50
2023-02-09T14:53:32.553Z,9.40
2023-02-09T14:56:00.921Z,9.50
2023-02-09T14:58:27.424Z,9.50
2023-02-09T15:00:53.933Z,9.50
2023-02-09T15:03:20.415Z,9.40
2023-02-09T15:05:47.091Z,9.40
2023-02-09T15:08:13.661Z,9.40
2023-02-09T15:10:40.146Z,9.40
2023-02-09T15:13:06.623Z,9.60
2023-02-09T15:15:33.179Z,9.40
2023-02-09T15:17:59.704Z,9.50
2023-02-09T15:20:26.225Z,9.60
2023-02-09T15:22:52.731Z,9.70
2023-02-09T15:25:19.262Z,9.70
2023-02-09T15:27:51.415Z,9.70
2023-02-09T15:30:18.036Z,9.70
2023-02-09T15:32:44.691Z,9.80
2023-02-09T15:35:11.190Z,9.70
2023-02-09T15:37:37.653Z,9.70
2023-02-09T15:40:04.213Z,9.70
2023-02-09T15:42:30.687Z,9.40
2023-02-09T15:44:57.156Z,9.30
2023-02-09T15:47:23.629Z,9.40
2023-02-09T15:49:50.108Z,9.50
2023-02-09T15:52:16.724Z,9.50
2023-02-09T15:54:43.194Z,9.50
2023-02-09T15:57:09.725Z,9.50
2023-02-09T15:59:36.214Z,9.40
2023-02-09T16:02:02.763Z,9.40
2023-02-09T16:04:29.239Z,9.60
2023-02-09T16:06:55.727Z,9.50
2023-02-09T16:09:22.205Z,9.50
2023-02-09T16:11:48.749Z,9.60
2023-02-09T16:14:15.273Z,9.70
2023-02-09T16:16:41.843Z,9.60
2023-02-09T16:19:08.373Z,9.60
2023-02-09T16:21:34.862Z,9.60
2023-02-09T16:24:01.340Z,9.60
2023-02-09T16:26:27.831Z,9.70
2023-02-09T16:28:54.320Z,9.70
2023-02-09T16:31:20.858Z,9.70
2023-02-09T16:33:48.952Z,9.80
2023-02-09T16:36:15.420Z,9.70
2023-02-09T16:38:41.876Z,9.70
2023-02-09T16:41:08.366Z,9.70
2023-02-09T16:43:34.836Z,9.60
2023-02-09T16:46:03.982Z,9.60
2023-02-09T16:48:30.764Z,9.60
2023-02-09T16:50:57.232Z,9.70
2023-02-09T16:53:23.725Z,9.70
2023-02-09T16:55:50.626Z,9.80
2023-02-09T16:58:17.255Z,9.70
2023-02-09T17:00:43.796Z,9.70
2023-02-09T17:03:10.278Z,9.40
2023-02-09T17:05:36.747Z,9.60
2023-02-09T17:08:03.250Z,9.80
2023-02-09T17:10:29.759Z,9.60
2023-02-09T17:12:56.218Z,9.60
2023-02-09T17:15:31.723Z,9.50
2023-02-09T17:18:00.825Z,9.50
2023-02-09T17:20:28.296Z,9.60
2023-02-09T17:22:55.002Z,9.60
2023-02-09T17:25:21.565Z,9.50
2023-02-09T17:27:48.272Z,9.50
2023-02-09T17:30:14.781Z,9.60
2023-02-09T17:32:41.260Z,9.60
2023-02-09T17:35:07.744Z,9.70
2023-02-09T17:37:34.246Z,9.70
2023-02-09T17:40:00.722Z,9.60
2023-02-09T17:42:27.198Z,9.70
2023-02-09T17:44:53.758Z,9.50
2023-02-09T17:47:20.305Z,9.60
2023-02-09T17:49:46.824Z,9.60
2023-02-09T17:52:13.351Z,9.50
2023-02-09T17:54:39.836Z,9.40
2023-02-09T17:57:06.338Z,9.60
2023-02-09T17:59:32.802Z,9.40
2023-02-09T18:01:59.278Z,9.40
2023-02-09T18:04:25.762Z,9.50
2023-02-09T18:06:52.241Z,9.40
2023-02-09T18:09:18.698Z,9.40
2023-02-09T18:11:46.094Z,9.30
2023-02-09T18:14:12.568Z,9.20
2023-02-09T18:16:39.139Z,9.10
2023-02-09T18:19:07.054Z,9.20
2023-02-09T18:21:33.542Z,9.20
2023-02-09T18:24:00.034Z,9.20
2023-02-09T18:26:26.504Z,9.40
2023-02-09T18:28:52.962Z,9.20
2023-02-09T18:31:19.515Z,9.30
2023-02-09T18:33:46.092Z,9.30
2023-02-09T18:36:12.585Z,9.40
2023-02-09T18:38:39.059Z,9.30
2023-02-09T18:41:05.529Z,9.30
2023-02-09T18:43:32.050Z,9.30
2023-02-09T18:45:58.558Z,9.30
2023-02-09T18:48:25.079Z,9.20
2023-02-09T18:50:51.563Z,9.40
2023-02-09T18:53:18.026Z,9.40
2023-02-09T18:55:44.749Z,9.30
2023-02-09T18:58:11.441Z,9.40
2023-02-09T19:00:37.917Z,9.50
2023-02-09T19:03:04.461Z,9.20
2023-02-09T19:05:30.974Z,9.20
2023-02-09T19:07:57.453Z,9.20
2023-02-09T19:10:23.932Z,9.20
2023-02-09T19:12:50.437Z,9.10
2023-02-09T19:15:16.913Z,9.00
2023-02-09T19:17:43.398Z,9.10
2023-02-09T19:20:09.888Z,9.20
2023-02-09T19:22:36.352Z,9.20
2023-02-09T19:25:02.849Z,9.10
2023-02-09T19:27:29.326Z,9.30
2023-02-09T19:29:55.778Z,9.30
2023-02-09T19:32:22.244Z,9.20
2023-02-09T19:34:48.719Z,9.30
2023-02-09T19:37:15.209Z,9.30
2023-02-09T19:39:41.682Z,9.30
2023-02-09T19:42:08.175Z,9.10
2023-02-09T19:44:34.650Z,9.10
2023-02-09T19:47:01.140Z,9.20
2023-02-09T19:49:27.648Z,9.20
2023-02-09T19:51:54.126Z,9.40
2023-02-09T19:54:20.596Z,9.30
2023-02-09T19:56:47.089Z,9.20
2023-02-09T19:59:13.590Z,9.30
2023-02-09T20:01:40.133Z,9.40
2023-02-09T20:04:06.654Z,9.00
2023-02-09T20:06:33.154Z,9.10
2023-02-09T20:08:59.656Z,9.20
2023-02-09T20:11:26.152Z,9.20
2023-02-09T20:13:52.654Z,9.20
2023-02-09T20:16:19.508Z,9.20
2023-02-09T20:18:46.019Z,9.50
2023-02-09T20:21:12.540Z,9.40
2023-02-09T20:23:39.028Z,9.30
2023-02-09T20:26:05.550Z,9.30
2023-02-09T20:28:32.066Z,9.50
2023-02-09T20:30:58.564Z,9.50
2023-02-09T20:33:25.046Z,9.50
2023-02-09T20:35:51.519Z,9.30
2023-02-09T20:38:19.193Z,9.50
2023-02-09T20:40:45.948Z,9.30
2023-02-09T20:43:12.591Z,9.30
2023-02-09T20:45:39.072Z,9.30
2023-02-09T20:48:05.554Z,9.40
2023-02-09T20:50:32.051Z,9.40
2023-02-09T20:52:58.538Z,9.40
2023-02-09T20:55:25.005Z,9.30
2023-02-09T20:57:51.583Z,9.20
2023-02-09T21:00:18.083Z,9.30
2023-02-09T21:02:49.272Z,9.20
2023-02-09T21:05:15.802Z,9.40
2023-02-09T21:07:42.297Z,9.40
2023-02-09T21:10:08.794Z,9.40
2023-02-09T21:12:35.276Z,9.40
2023-02-09T21:15:01.748Z,9.40
2023-02-09T21:17:28.239Z,9.50
2023-02-09T21:19:54.731Z,9.60
2023-02-09T21:22:21.214Z,9.50
2023-02-09T21:24:47.673Z,9.40
2023-02-09T21:27:14.195Z,9.40
2023-02-09T21:29:40.682Z,9.60
2023-02-09T21:32:07.229Z,9.60
2023-02-09T21:34:33.780Z,9.40
2023-02-09T21:37:00.279Z,9.40
2023-02-09T21:39:26.768Z,9.40
2023-02-09T21:41:53.251Z,9.40
2023-02-09T21:44:19.724Z,9.40
2023-02-09T21:46:46.219Z,9.40
2023-02-09T21:49:12.697Z,9.30
2023-02-09T21:51:39.301Z,9.50
2023-02-09T21:54:05.775Z,9.50
2023-02-09T21:56:32.264Z,9.30
2023-02-09T21:58:58.757Z,9.40
2023-02-09T22:01:25.271Z,9.40
2023-02-09T22:03:51.782Z,9.40
2023-02-09T22:06:18.276Z,9.50
2023-02-09T22:08:44.745Z,9.60
2023-02-09T22:11:11.218Z,9.50
2023-02-09T22:13:37.696Z,9.50
2023-02-09T22:16:04.168Z,9.40
2023-02-09T22:18:30.684Z,9.40
2023-02-09T22:20:57.166Z,9.40
2023-02-09T22:23:23.642Z,9.50
2023-02-09T22:25:50.110Z,9.50
2023-02-09T22:28:16.600Z,9.40
2023-02-09T22:30:43.273Z,9.20
2023-02-09T22:33:09.795Z,9.50
2023-02-09T22:35:36.273Z,9.20
2023-02-09T22:38:02.775Z,9.20
2023-02-09T22:40:29.259Z,9.40
2023-02-09T22:42:55.748Z,9.40
2023-02-09T22:45:22.225Z,9.50
2023-02-09T22:47:48.685Z,9.30
2023-02-09T22:50:15.147Z,9.40
2023-02-09T22:52:41.616Z,9.40
2023-02-09T22:55:08.077Z,9.40
2023-02-09T22:57:34.570Z,9.40
2023-02-09T23:00:01.038Z,9.30
2023-02-09T23:02:27.520Z,9.40
2023-02-09T23:04:54.003Z,9.40
2023-02-09T23:07:20.506Z,9.50
2023-02-09T23:09:47.007Z,9.50
2023-02-09T23:12:13.525Z,9.50
2023-02-09T23:14:40.026Z,9.40
2023-02-09T23:17:06.539Z,9.20
2023-02-09T23:19:33.024Z,9.20
2023-02-09T23:21:59.514Z,9.10
2023-02-09T23:24:26.083Z,9.20
2023-02-09T23:26:52.573Z,9.30
2023-02-09T23:29:19.063Z,9.30
2023-02-09T23:31:45.612Z,9.20
2023-02-09T23:34:12.101Z,9.30
2023-02-09T23:36:38.562Z,9.40
2023-02-09T23:39:05.088Z,9.30
2023-02-09T23:41:31.581Z,9.20
2023-02-09T23:43:58.182Z,9.10
2023-02-09T23:46:25.432Z,9.10
2023-02-09T23:48:53.191Z,9.20
2023-02-09T23:51:19.666Z,9.10
2023-02-09T23:53:46.158Z,9.20
2023-02-09T23:56:12.635Z,9.20
2023-02-09T23:58:39.169Z,9.20
